Dalhart Municipal Airport
KDHT : rendu visible

Aérodrome :











RETROUVEZ-NOUS SUR...

 
LOGIN :

S'inscrire | Disclaimer

   EN    FR    IT 

 









Légende :    VFR   VFR Marginal   IFR   IFR Intensif   IFR Très Intensif
Visi : 
Plafond : 
>= 8 km
>= 3000ft
5 à 8 km
1000 à 3000 ft
1500m à 5 km
500 à 1000 ft
800 à 1500m
200 à 500 ft
< 800m
< 200 ft
Symboles :   Orages  Brouillard  Fortes neiges  Fortes précipitations  Vent > 20 kt






- Altitude de l'aérodrome : 3991 ft


KDHT - Dalhart Municipal

DERNIER METAR :
  • 271253Z AUTO 36006KT 10SM CLR 14/06 A3003 RMK AO2 SLP119 T01440061

METARs EXPIRÉS :
  • 271153Z AUTO 01006KT 10SM CLR 13/07 A3003 RMK AO2 SLP121 T01280067 10172 20128 53011
  • 271053Z AUTO 33004KT 10SM CLR 14/06 A3001 RMK AO2 SLP112 T01390061

TAF KDHT
Valide du 27 à 12h jusqu'au 28 à 12h UTC


271137Z 2712/2812 36009KT P6SM SCT100
FM271800 04012KT P6SM BKN100
FM280200 07010KT P6SM SCT250
FIR KZAB / Amérique du Nord



MET'MAP, la Météo Aéronautique d'un coup d'oeil ! - Copyright ORBIFLY Décembre 2007 - Disclaimer

ORBIFLY MET'MAP TEAM :

Programmation & Développement : Alexandra Zaïnal
Sur une idée originale de : Baudouin d'Aumeries
Assistance à la programmation : Marc-Olivier Méhu
Soutien technique & logistique : Manuel Goepfert

Contact : metmap@orbifly.com




SOURCES & CREDITS :

   NOAA       Earth
Advisory